Time;durP1;ratioP1;P1;durP2;ratioP2;P2;SDS_P1;SDS_P2;PMS_P1;PMS_P2;Temp;Humidity;BMP_temperature;BMP_pressure;BME280_temperature;BME280_humidity;BME280_pressure;Samples;Min_cycle;Max_cycle;Signal;HPM_P1;HPM_P2
2022/08/11 00:01:52;;;;;;;7.83;5.00;;;;;;;;;;5083483;28;20485;-72
2022/08/11 00:04:20;;;;;;;6.33;5.73;;;;;;;;;;5061077;28;20431;-73
2022/08/11 00:06:47;;;;;;;6.00;5.40;;;;;;;;;;5073864;28;20833;-73
2022/08/11 00:09:19;;;;;;;6.43;5.60;;;;;;;;;;5073832;28;20440;-73
2022/08/11 00:11:50;;;;;;;6.37;5.77;;;;;;;;;;5075732;28;20430;-73
2022/08/11 00:14:17;;;;;;;6.00;5.40;;;;;;;;;;5070187;28;20429;-73
2022/08/11 00:16:52;;;;;;;8.50;6.23;;;;;;;;;;5071891;28;20454;-73
2022/08/11 00:19:20;;;;;;;7.00;6.00;;;;;;;;;;5090441;28;20816;-73
2022/08/11 00:22:07;;;;;;;10.33;5.90;;;;;;;;;;5090227;28;20427;-73
2022/08/11 00:24:35;;;;;;;5.97;5.27;;;;;;;;;;5090323;28;20507;-73
2022/08/11 00:27:29;;;;;;;10.20;5.17;;;;;;;;;;5059473;28;20471;-73
2022/08/11 00:29:56;;;;;;;9.00;6.73;;;;;;;;;;5071515;28;20897;-73
2022/08/11 00:32:23;;;;;;;9.60;6.40;;;;;;;;;;5053363;28;20524;-73
2022/08/11 00:34:50;;;;;;;10.50;5.83;;;;;;;;;;5071221;28;20435;-73
2022/08/11 00:37:37;;;;;;;9.20;5.80;;;;;;;;;;5069937;28;20551;-73
2022/08/11 00:40:06;;;;;;;8.83;5.97;;;;;;;;;;5071195;28;20968;-73
2022/08/11 00:42:52;;;;;;;7.07;6.00;;;;;;;;;;5085376;28;20518;-72
2022/08/11 00:45:19;;;;;;;6.80;5.50;;;;;;;;;;5089989;28;20431;-72
2022/08/11 00:47:54;;;;;;;6.87;6.20;;;;;;;;;;5089861;28;20456;-72
2022/08/11 00:50:25;;;;;;;9.80;5.60;;;;;;;;;;5090107;28;20427;-72
2022/08/11 00:52:58;;;;;;;8.67;6.47;;;;;;;;;;5073513;28;20840;-72
2022/08/11 00:55:25;;;;;;;9.67;6.60;;;;;;;;;;5089915;28;20446;-72
2022/08/11 00:58:04;;;;;;;7.43;6.70;;;;;;;;;;5089902;28;21012;-72
2022/08/11 01:00:48;;;;;;;7.63;6.40;;;;;;;;;;5093037;28;20419;-72
2022/08/11 01:03:16;;;;;;;7.23;5.63;;;;;;;;;;5077465;28;20926;-72
2022/08/11 01:05:55;;;;;;;6.03;5.43;;;;;;;;;;5094170;28;20431;-73
2022/08/11 01:08:40;;;;;;;13.23;5.97;;;;;;;;;;5094117;28;20516;-72
2022/08/11 01:11:22;;;;;;;7.97;5.53;;;;;;;;;;5086202;28;20425;-72
2022/08/11 01:14:07;;;;;;;6.77;5.40;;;;;;;;;;5071952;28;20417;-72
2022/08/11 01:16:52;;;;;;;12.33;6.97;;;;;;;;;;5090490;28;20449;-72
2022/08/11 01:19:45;;;;;;;6.30;5.80;;;;;;;;;;5080413;28;20514;-72
2022/08/11 01:22:39;;;;;;;5.80;5.40;;;;;;;;;;5069978;28;20511;-72
2022/08/11 01:25:44;;;;;;;8.47;6.10;;;;;;;;;;5083124;28;20417;-72
2022/08/11 01:28:41;;;;;;;14.10;7.00;;;;;;;;;;4987495;28;20459;-72
2022/08/11 01:31:11;;;;;;;12.53;6.73;;;;;;;;;;4990591;28;20510;-72
2022/08/11 01:33:56;;;;;;;10.23;6.93;;;;;;;;;;5047376;28;20470;-72
2022/08/11 01:36:41;;;;;;;19.13;8.60;;;;;;;;;;5090369;28;20477;-72
2022/08/11 01:39:08;;;;;;;13.37;7.10;;;;;;;;;;5093504;28;20463;-72
2022/08/11 01:44:37;;;;;;;13.97;8.90;;;;;;;;;;5094641;28;20416;-72
2022/08/11 01:50:51;;;;;;;14.70;10.00;;;;;;;;;;5093207;28;20938;-72
2022/08/11 01:53:21;;;;;;;17.97;10.33;;;;;;;;;;5049503;28;20427;-72
2022/08/11 01:55:59;;;;;;;16.43;10.83;;;;;;;;;;5094350;28;20870;-72
2022/08/11 01:58:37;;;;;;;21.27;10.57;;;;;;;;;;5076079;28;20505;-72
2022/08/11 02:01:26;;;;;;;18.73;9.77;;;;;;;;;;5094601;28;20465;-72
2022/08/11 02:03:56;;;;;;;16.90;9.30;;;;;;;;;;5094309;28;20468;-72
2022/08/11 02:06:54;;;;;;;20.70;10.13;;;;;;;;;;5092901;28;20451;-72
2022/08/11 02:09:33;;;;;;;12.37;8.20;;;;;;;;;;5093047;28;20448;-72
2022/08/11 02:12:08;;;;;;;17.20;8.57;;;;;;;;;;5072088;28;20508;-72
2022/08/11 02:14:43;;;;;;;10.50;9.17;;;;;;;;;;5072585;28;20983;-72
2022/08/11 02:17:41;;;;;;;9.00;8.07;;;;;;;;;;5072345;28;20524;-72
2022/08/11 02:23:38;;;;;;;12.60;10.83;;;;;;;;;;5072408;28;20428;-72
2022/08/11 02:26:32;;;;;;;11.30;10.10;;;;;;;;;;5072260;28;20440;-72
2022/08/11 02:29:16;;;;;;;10.47;9.40;;;;;;;;;;5073564;28;20471;-72
2022/08/11 02:35:02;;;;;;;11.40;10.30;;;;;;;;;;5073573;28;20416;-72
2022/08/11 02:37:37;;;;;;;10.60;9.60;;;;;;;;;;5073392;28;20444;-72
2022/08/11 02:40:10;;;;;;;10.20;8.30;;;;;;;;;;5072043;28;20526;-72
2022/08/11 02:42:41;;;;;;;10.57;9.57;;;;;;;;;;5071992;28;20490;-72
2022/08/11 02:45:10;;;;;;;11.50;9.17;;;;;;;;;;5072320;28;20435;-72
2022/08/11 02:50:48;;;;;;;12.20;9.30;;;;;;;;;;5073394;28;20449;-72
2022/08/11 02:53:33;;;;;;;10.23;9.23;;;;;;;;;;5073744;28;20968;-72
2022/08/11 02:56:21;;;;;;;9.00;8.20;;;;;;;;;;5071838;28;20425;-72
2022/08/11 02:59:48;;;;;;;11.50;10.40;;;;;;;;;;5072037;28;20492;-72
2022/08/11 03:01:57;;;;;;;13.63;12.23;;;;;;;;;;5081591;28;20424;-72
2022/08/11 03:04:43;;;;;;;12.67;11.30;;;;;;;;;;5089964;28;20509;-73
2022/08/11 03:07:22;;;;;;;16.53;11.80;;;;;;;;;;5077007;28;21253;-72
2022/08/11 03:10:13;;;;;;;13.57;11.83;;;;;;;;;;5092614;28;20437;-72
2022/08/11 03:19:02;;;;;;;10.87;9.70;;;;;;;;;;5017212;28;20967;-72
2022/08/11 03:21:33;;;;;;;13.17;10.73;;;;;;;;;;5059783;28;20441;-72
2022/08/11 03:24:58;;;;;;;11.27;10.13;;;;;;;;;;5072083;28;20523;-72
2022/08/11 03:27:30;;;;;;;11.33;10.10;;;;;;;;;;4994114;28;20508;-72
2022/08/11 03:30:05;;;;;;;11.43;10.10;;;;;;;;;;4974732;28;20436;-72
2022/08/11 03:32:32;;;;;;;9.97;8.93;;;;;;;;;;4986896;28;20475;-72
2022/08/11 03:35:00;;;;;;;12.20;10.03;;;;;;;;;;4975408;28;20475;-72
2022/08/11 03:37:49;;;;;;;16.70;11.37;;;;;;;;;;4974306;28;20463;-72
2022/08/11 03:41:41;;;;;;;12.93;10.33;;;;;;;;;;4974391;28;20535;-72
2022/08/11 03:43:10;;;;;;;15.40;11.50;;;;;;;;;;4974443;28;20953;-72
2022/08/11 03:46:03;;;;;;;12.17;9.20;;;;;;;;;;4990783;28;20437;-72
2022/08/11 03:48:41;;;;;;;17.50;11.73;;;;;;;;;;4989398;28;20456;-72
2022/08/11 03:51:18;;;;;;;12.73;11.40;;;;;;;;;;4990433;28;20464;-72
2022/08/11 03:54:10;;;;;;;18.23;13.00;;;;;;;;;;4974429;28;20520;-72
2022/08/11 03:56:40;;;;;;;12.10;10.90;;;;;;;;;;4990349;28;20486;-72
2022/08/11 03:59:09;;;;;;;20.33;12.83;;;;;;;;;;5056612;28;20480;-72
2022/08/11 04:01:54;;;;;;;14.07;12.50;;;;;;;;;;5070427;28;20494;-72
2022/08/11 04:04:47;;;;;;;16.83;11.30;;;;;;;;;;5051011;28;20912;-72
2022/08/11 04:07:36;;;;;;;13.10;11.70;;;;;;;;;;5065433;28;20482;-72
2022/08/11 04:10:21;;;;;;;17.30;11.63;;;;;;;;;;5071883;28;20416;-72
2022/08/11 04:13:06;;;;;;;17.97;12.63;;;;;;;;;;5070303;28;20468;-72
2022/08/11 04:18:39;;;;;;;16.47;13.90;;;;;;;;;;5073366;28;20459;-72
2022/08/11 04:21:06;;;;;;;14.00;11.23;;;;;;;;;;5079867;28;20525;-72
2022/08/11 04:24:02;;;;;;;21.50;13.83;;;;;;;;;;5070216;28;20459;-72
2022/08/11 04:26:49;;;;;;;14.27;12.70;;;;;;;;;;5070000;28;20439;-72
2022/08/11 04:29:29;;;;;;;14.97;13.47;;;;;;;;;;5070251;28;20436;-72
2022/08/11 04:32:26;;;;;;;18.23;12.70;;;;;;;;;;5071364;28;20508;-72
2022/08/11 04:35:02;;;;;;;18.03;12.53;;;;;;;;;;5070428;28;20503;-72
2022/08/11 04:37:33;;;;;;;18.27;14.27;;;;;;;;;;5070170;28;20806;-73
2022/08/11 04:40:12;;;;;;;19.60;13.40;;;;;;;;;;5070245;28;20464;-73
2022/08/11 04:45:39;;;;;;;13.27;11.87;;;;;;;;;;5078790;28;21361;-73
2022/08/11 05:02:58;;;;;;;23.40;15.10;;;;;;;;;;5077970;28;20477;-73
2022/08/11 05:05:45;;;;;;;25.57;17.20;;;;;;;;;;5074421;28;20470;-73
2022/08/11 05:08:22;;;;;;;24.20;14.70;;;;;;;;;;5084558;28;20444;-73
2022/08/11 05:11:06;;;;;;;19.83;14.20;;;;;;;;;;5065311;28;20434;-73
2022/08/11 05:36:24;;;;;;;14.97;11.60;;;;;;;;;;5076245;28;20468;-73
2022/08/11 05:56:58;;;;;;;15.30;11.23;;;;;;;;;;5074413;28;20413;-73
2022/08/11 05:59:27;;;;;;;13.63;11.40;;;;;;;;;;5053809;28;20463;-73
2022/08/11 06:01:59;;;;;;;17.73;11.77;;;;;;;;;;5078083;28;20431;-73
2022/08/11 06:04:27;;;;;;;16.30;11.20;;;;;;;;;;5093153;28;20431;-73
2022/08/11 06:06:56;;;;;;;13.97;12.20;;;;;;;;;;5079714;28;20881;-73
2022/08/11 06:09:24;;;;;;;13.47;10.03;;;;;;;;;;5094411;28;20449;-73
2022/08/11 06:11:51;;;;;;;14.40;11.23;;;;;;;;;;5077029;28;20500;-73
2022/08/11 06:14:18;;;;;;;11.57;10.10;;;;;;;;;;5084209;28;20460;-73
2022/08/11 06:16:46;;;;;;;10.97;9.80;;;;;;;;;;5089268;28;20524;-73
2022/08/11 06:19:13;;;;;;;15.43;10.43;;;;;;;;;;5082418;28;20915;-73
2022/08/11 06:21:43;;;;;;;13.03;8.77;;;;;;;;;;5078264;28;20459;-73
2022/08/11 06:24:11;;;;;;;8.30;7.50;;;;;;;;;;5083712;28;20431;-73
2022/08/11 06:26:39;;;;;;;11.43;7.63;;;;;;;;;;5089901;28;20427;-73
2022/08/11 06:29:26;;;;;;;14.67;8.93;;;;;;;;;;5059606;28;20510;-73
2022/08/11 06:32:04;;;;;;;9.10;7.40;;;;;;;;;;5074351;28;20437;-73
2022/08/11 06:34:34;;;;;;;9.60;7.97;;;;;;;;;;5083003;28;20419;-73
2022/08/11 06:37:15;;;;;;;8.77;7.27;;;;;;;;;;5064617;28;20441;-73
2022/08/11 06:39:46;;;;;;;9.23;7.83;;;;;;;;;;5066617;28;20429;-73
2022/08/11 06:42:31;;;;;;;8.50;7.70;;;;;;;;;;5077642;28;20416;-73
2022/08/11 06:45:07;;;;;;;7.60;6.17;;;;;;;;;;5094374;28;20489;-73
2022/08/11 06:47:34;;;;;;;7.27;6.17;;;;;;;;;;5094925;28;20829;-73
2022/08/11 06:52:46;;;;;;;10.97;4.97;;;;;;;;;;5089983;28;20476;-73
2022/08/11 07:00:26;;;;;;;3.93;3.63;;;;;;;;;;5073821;28;20444;-73
2022/08/11 07:01:10;;;;;;;4.50;4.20;;;;;;;;;;5086846;28;20479;-73
2022/08/11 07:03:39;;;;;;;4.43;4.03;;;;;;;;;;5058424;28;20465;-73
2022/08/11 07:06:25;;;;;;;5.20;4.20;;;;;;;;;;5088558;28;20432;-73
2022/08/11 07:17:27;;;;;;;4.73;3.80;;;;;;;;;;5066606;28;20472;-73
2022/08/11 07:31:16;;;;;;;4.80;3.67;;;;;;;;;;5072605;28;20485;-73
2022/08/11 07:33:51;;;;;;;3.80;3.47;;;;;;;;;;5071571;28;20474;-73
2022/08/11 07:36:41;;;;;;;4.00;3.70;;;;;;;;;;5077327;28;20447;-73
2022/08/11 07:39:11;;;;;;;4.70;3.20;;;;;;;;;;5093088;28;20448;-74
2022/08/11 07:41:38;;;;;;;4.20;3.77;;;;;;;;;;5091489;28;20463;-74
2022/08/11 07:44:07;;;;;;;6.00;3.30;;;;;;;;;;5060577;28;20443;-73
2022/08/11 07:52:32;;;;;;;4.30;3.10;;;;;;;;;;5085536;28;20439;-74
2022/08/11 07:55:13;;;;;;;3.37;3.07;;;;;;;;;;5074499;28;20442;-74
2022/08/11 08:17:51;;;;;;;3.70;3.40;;;;;;;;;;5071357;28;20460;-74
2022/08/11 08:20:41;;;;;;;4.00;3.10;;;;;;;;;;5057498;28;20552;-74
2022/08/11 08:23:08;;;;;;;4.40;2.67;;;;;;;;;;5087129;28;20924;-74
2022/08/11 08:25:36;;;;;;;5.77;2.87;;;;;;;;;;5050427;28;20429;-74
2022/08/11 08:28:05;;;;;;;4.50;2.93;;;;;;;;;;5063671;28;20445;-74
2022/08/11 08:30:46;;;;;;;4.10;3.10;;;;;;;;;;5071692;28;20455;-74
2022/08/11 08:33:14;;;;;;;2.97;2.77;;;;;;;;;;5052932;28;20437;-74
2022/08/11 08:35:43;;;;;;;5.53;3.13;;;;;;;;;;5074605;28;20510;-74
2022/08/11 08:38:21;;;;;;;2.80;2.60;;;;;;;;;;5090145;28;20459;-74
2022/08/11 08:40:51;;;;;;;3.30;3.00;;;;;;;;;;5090062;28;21005;-74
2022/08/11 08:43:21;;;;;;;2.37;2.17;;;;;;;;;;5074033;28;20955;-74
2022/08/11 08:45:48;;;;;;;3.43;3.13;;;;;;;;;;5060323;28;20928;-74
2022/08/11 08:48:15;;;;;;;3.10;2.90;;;;;;;;;;5072213;28;20995;-74
2022/08/11 08:53:50;;;;;;;4.87;2.60;;;;;;;;;;5078400;28;20459;-74
2022/08/11 08:56:29;;;;;;;4.20;2.43;;;;;;;;;;5063581;28;20534;-74
2022/08/11 08:58:57;;;;;;;3.03;2.83;;;;;;;;;;5069950;28;20475;-74
2022/08/11 09:01:27;;;;;;;4.30;2.63;;;;;;;;;;5053412;28;20533;-75
2022/08/11 09:03:53;;;;;;;3.40;3.13;;;;;;;;;;5069944;28;20433;-75
2022/08/11 09:06:38;;;;;;;5.00;2.90;;;;;;;;;;5070285;28;21029;-74
2022/08/11 09:09:09;;;;;;;3.30;2.60;;;;;;;;;;5070018;28;20471;-74
2022/08/11 09:11:54;;;;;;;3.27;2.97;;;;;;;;;;5061659;28;21015;-75
2022/08/11 09:14:59;;;;;;;2.83;2.53;;;;;;;;;;5076165;28;20778;-75
2022/08/11 09:17:27;;;;;;;3.10;2.80;;;;;;;;;;5057483;28;20495;-75
2022/08/11 09:20:07;;;;;;;2.90;2.63;;;;;;;;;;5069397;28;20440;-75
2022/08/11 09:28:28;;;;;;;2.67;2.47;;;;;;;;;;5073409;28;20491;-75
2022/08/11 09:30:55;;;;;;;2.70;2.50;;;;;;;;;;5073557;28;20436;-75
2022/08/11 09:33:23;;;;;;;4.67;2.63;;;;;;;;;;5073501;28;20428;-75
2022/08/11 09:35:51;;;;;;;2.87;2.60;;;;;;;;;;5073642;28;20432;-75
2022/08/11 09:41:05;;;;;;;3.83;2.87;;;;;;;;;;5073825;28;20476;-75
2022/08/11 09:46:29;;;;;;;2.93;2.17;;;;;;;;;;5073202;28;20851;-76
2022/08/11 09:48:59;;;;;;;4.07;2.60;;;;;;;;;;5073142;28;20521;-77
2022/08/11 09:51:29;;;;;;;5.00;2.70;;;;;;;;;;5073221;28;20444;-75
2022/08/11 09:53:58;;;;;;;3.80;2.53;;;;;;;;;;5072804;28;20470;-75
2022/08/11 09:59:17;;;;;;;4.10;2.63;;;;;;;;;;5072902;28;20494;-75
2022/08/11 10:01:49;;;;;;;3.50;2.40;;;;;;;;;;5052788;28;20522;-76
2022/08/11 10:04:17;;;;;;;3.10;2.70;;;;;;;;;;5052787;28;20503;-75
2022/08/11 10:07:02;;;;;;;3.17;2.87;;;;;;;;;;5067606;28;20425;-75
2022/08/11 10:09:40;;;;;;;3.73;3.10;;;;;;;;;;5072696;28;20421;-75
2022/08/11 10:12:09;;;;;;;2.30;2.20;;;;;;;;;;5073736;28;20494;-76
2022/08/11 10:17:24;;;;;;;3.20;3.00;;;;;;;;;;5075363;28;20472;-75
2022/08/11 10:19:51;;;;;;;2.50;2.30;;;;;;;;;;5071703;28;20508;-74
2022/08/11 10:28:19;;;;;;;3.00;2.80;;;;;;;;;;5090821;28;20440;-75
2022/08/11 10:34:12;;;;;;;10.83;2.87;;;;;;;;;;5072415;28;20511;-75
2022/08/11 10:36:44;;;;;;;3.40;3.07;;;;;;;;;;5069508;28;20434;-75
2022/08/11 10:39:15;;;;;;;2.87;2.63;;;;;;;;;;5052521;28;20454;-75
2022/08/11 10:44:38;;;;;;;5.23;3.00;;;;;;;;;;5073527;28;20474;-76
2022/08/11 11:00:55;;;;;;;2.47;2.27;;;;;;;;;;5030443;28;21082;-75
2022/08/11 11:03:26;;;;;;;3.03;2.23;;;;;;;;;;5019644;28;20476;-75
2022/08/11 11:05:56;;;;;;;3.13;2.83;;;;;;;;;;5072490;28;20482;-75
2022/08/11 11:08:54;;;;;;;2.87;2.67;;;;;;;;;;5057420;28;20460;-75
2022/08/11 11:19:40;;;;;;;2.80;2.40;;;;;;;;;;5071303;28;20536;-73
2022/08/11 11:25:17;;;;;;;3.13;2.50;;;;;;;;;;5071241;28;20472;-73
2022/08/11 11:27:44;;;;;;;2.53;2.33;;;;;;;;;;5071236;28;20453;-73
2022/08/11 11:30:13;;;;;;;2.80;2.60;;;;;;;;;;5077512;28;20481;-73
2022/08/11 11:32:53;;;;;;;2.50;2.30;;;;;;;;;;5074628;28;20432;-72
2022/08/11 11:35:25;;;;;;;2.70;2.50;;;;;;;;;;5092625;28;20415;-73
2022/08/11 11:37:52;;;;;;;5.00;2.90;;;;;;;;;;5074798;28;20443;-71
2022/08/11 11:40:30;;;;;;;3.60;2.67;;;;;;;;;;5082375;28;20411;-71
2022/08/11 11:42:58;;;;;;;2.80;2.60;;;;;;;;;;5070887;28;20488;-71
2022/08/11 11:45:25;;;;;;;5.73;2.20;;;;;;;;;;5070806;28;20493;-72
2022/08/11 11:47:53;;;;;;;5.77;3.10;;;;;;;;;;5075592;28;20460;-71
2022/08/11 11:50:23;;;;;;;3.13;1.87;;;;;;;;;;5104480;28;20455;-71
2022/08/11 11:52:55;;;;;;;2.60;2.33;;;;;;;;;;5098290;28;20421;-72
2022/08/11 11:55:22;;;;;;;3.17;2.97;;;;;;;;;;5060720;28;20434;-72
2022/08/11 12:03:27;;;;;;;3.10;2.80;;;;;;;;;;5091413;28;20435;-72
2022/08/11 12:05:54;;;;;;;2.57;2.40;;;;;;;;;;5074322;28;20457;-72
2022/08/11 12:08:23;;;;;;;4.17;2.87;;;;;;;;;;5091637;28;20542;-72
2022/08/11 12:13:39;;;;;;;2.90;2.70;;;;;;;;;;5058110;28;20899;-72
2022/08/11 12:13:40;;;;;;;2.60;2.40;;;;;;;;;;5073007;28;20482;-71
2022/08/11 12:16:09;;;;;;;3.07;2.37;;;;;;;;;;5089409;28;20419;-72
2022/08/11 12:18:59;;;;;;;2.80;2.60;;;;;;;;;;5064595;28;20478;-71
2022/08/11 12:21:29;;;;;;;5.23;2.40;;;;;;;;;;5091047;28;20451;-72
2022/08/11 12:29:44;;;;;;;7.10;3.30;;;;;;;;;;5064009;28;20949;-72
2022/08/11 12:32:10;;;;;;;2.80;2.33;;;;;;;;;;5074188;28;20768;-72
2022/08/11 12:34:37;;;;;;;3.23;2.20;;;;;;;;;;5087910;28;20482;-72
2022/08/11 12:37:05;;;;;;;2.67;2.43;;;;;;;;;;5071290;28;20428;-73
2022/08/11 12:45:49;;;;;;;3.57;2.40;;;;;;;;;;5071322;28;20420;-73
2022/08/11 12:54:40;;;;;;;3.03;2.30;;;;;;;;;;5056131;28;20456;-73
2022/08/11 13:05:45;;;;;;;5.00;2.67;;;;;;;;;;5098936;28;20427;-73
2022/08/11 13:08:15;;;;;;;5.90;2.63;;;;;;;;;;5103689;28;20459;-73
2022/08/11 13:13:29;;;;;;;3.10;2.80;;;;;;;;;;5096339;28;20459;-72
2022/08/11 13:16:16;;;;;;;2.97;2.77;;;;;;;;;;5067124;28;20428;-72
2022/08/11 13:18:43;;;;;;;2.37;2.17;;;;;;;;;;5071608;28;20456;-73
2022/08/11 13:21:10;;;;;;;2.37;2.20;;;;;;;;;;5053227;28;20512;-73
2022/08/11 13:23:45;;;;;;;2.53;2.33;;;;;;;;;;5070516;28;20432;-73
2022/08/11 13:26:36;;;;;;;2.87;2.57;;;;;;;;;;5055882;28;20437;-73
2022/08/11 13:29:25;;;;;;;2.77;2.40;;;;;;;;;;5069320;28;20448;-73
2022/08/11 13:31:53;;;;;;;4.13;2.53;;;;;;;;;;5069268;28;20439;-73
2022/08/11 13:34:21;;;;;;;3.97;2.80;;;;;;;;;;5069296;28;20436;-73
2022/08/11 13:36:53;;;;;;;2.47;2.27;;;;;;;;;;5069078;28;20467;-73
2022/08/11 13:39:21;;;;;;;2.90;2.10;;;;;;;;;;5086159;28;20819;-73
2022/08/11 13:41:50;;;;;;;2.33;2.13;;;;;;;;;;5068989;28;20673;-73
2022/08/11 13:44:17;;;;;;;4.23;2.57;;;;;;;;;;5053937;28;20489;-73
2022/08/11 13:46:51;;;;;;;3.47;2.60;;;;;;;;;;5073639;28;20846;-73
2022/08/11 13:49:19;;;;;;;6.20;3.23;;;;;;;;;;5074770;28;21458;-73
2022/08/11 13:51:46;;;;;;;2.90;2.70;;;;;;;;;;5070695;28;20425;-73
2022/08/11 13:54:18;;;;;;;2.67;2.43;;;;;;;;;;5069040;28;20829;-73
2022/08/11 13:56:46;;;;;;;4.00;3.00;;;;;;;;;;5069004;28;20940;-72
2022/08/11 13:59:13;;;;;;;7.37;2.70;;;;;;;;;;5068924;28;20464;-73
2022/08/11 14:01:46;;;;;;;4.00;2.37;;;;;;;;;;5070298;28;20557;-73
2022/08/11 14:04:51;;;;;;;2.63;2.33;;;;;;;;;;5057398;28;20425;-73
2022/08/11 14:07:23;;;;;;;3.30;2.90;;;;;;;;;;5083696;28;20503;-73
2022/08/11 14:09:57;;;;;;;2.83;2.63;;;;;;;;;;5073898;28;20492;-73
2022/08/11 14:15:26;;;;;;;7.17;3.23;;;;;;;;;;5073812;28;20861;-73
2022/08/11 14:18:00;;;;;;;7.30;3.10;;;;;;;;;;5089337;28;20899;-73
2022/08/11 14:22:05;;;;;;;4.80;3.30;;;;;;;;;;5078609;28;20409;-72
2022/08/11 14:23:15;;;;;;;3.63;2.60;;;;;;;;;;5088093;28;20526;-73
2022/08/11 14:26:22;;;;;;;3.63;2.40;;;;;;;;;;5089343;28;20454;-73
2022/08/11 14:28:30;;;;;;;6.77;2.60;;;;;;;;;;5094477;28;20805;-73
2022/08/11 14:31:06;;;;;;;3.47;3.17;;;;;;;;;;5066932;28;20428;-72
2022/08/11 14:33:33;;;;;;;2.93;2.70;;;;;;;;;;5072592;28;20452;-73
2022/08/11 14:36:21;;;;;;;3.17;2.87;;;;;;;;;;5073410;28;20503;-73
2022/08/11 14:38:49;;;;;;;2.53;2.33;;;;;;;;;;5078806;28;20529;-73
2022/08/11 14:47:04;;;;;;;3.90;2.73;;;;;;;;;;5092023;28;20431;-73
2022/08/11 14:49:53;;;;;;;2.77;2.57;;;;;;;;;;5060640;28;20424;-73
2022/08/11 14:52:36;;;;;;;7.13;2.50;;;;;;;;;;5071694;28;20463;-73
2022/08/11 14:57:50;;;;;;;2.90;2.50;;;;;;;;;;5071736;28;20460;-73
2022/08/11 15:00:22;;;;;;;3.30;2.80;;;;;;;;;;5073070;28;20412;-73
2022/08/11 15:05:35;;;;;;;3.50;2.93;;;;;;;;;;5072845;28;20450;-73
2022/08/11 15:08:03;;;;;;;2.40;2.03;;;;;;;;;;5071410;28;20983;-73
2022/08/11 15:10:30;;;;;;;3.17;2.90;;;;;;;;;;5071316;28;20490;-73
2022/08/11 15:12:56;;;;;;;5.90;2.50;;;;;;;;;;5062838;28;20489;-73
2022/08/11 15:18:11;;;;;;;3.03;2.70;;;;;;;;;;5090871;28;20468;-74
2022/08/11 15:26:10;;;;;;;2.30;2.10;;;;;;;;;;5071117;28;20862;-73
2022/08/11 15:37:25;;;;;;;3.63;2.00;;;;;;;;;;5085281;28;20439;-73
2022/08/11 15:46:01;;;;;;;5.20;2.30;;;;;;;;;;5070593;28;21019;-73
2022/08/11 15:48:30;;;;;;;6.53;2.47;;;;;;;;;;5070723;28;20667;-73
2022/08/11 15:51:02;;;;;;;3.50;2.80;;;;;;;;;;5086718;28;20485;-73
2022/08/11 15:53:52;;;;;;;2.60;2.40;;;;;;;;;;5074061;28;21011;-73
2022/08/11 15:56:24;;;;;;;2.27;2.17;;;;;;;;;;5074084;28;20470;-73
2022/08/11 16:04:44;;;;;;;4.57;2.00;;;;;;;;;;5090713;28;20515;-73
2022/08/11 16:07:12;;;;;;;3.50;2.57;;;;;;;;;;5090346;28;20458;-73
2022/08/11 16:09:39;;;;;;;2.10;1.90;;;;;;;;;;5090400;28;20836;-73
2022/08/11 16:12:15;;;;;;;3.10;2.30;;;;;;;;;;5061151;28;20428;-74
2022/08/11 16:17:32;;;;;;;6.03;2.97;;;;;;;;;;5060074;28;21005;-73
2022/08/11 16:19:59;;;;;;;2.13;2.03;;;;;;;;;;5072555;28;20439;-73
2022/08/11 16:22:38;;;;;;;2.60;2.27;;;;;;;;;;5091830;28;20508;-73
2022/08/11 16:25:06;;;;;;;2.50;2.30;;;;;;;;;;5087550;28;20419;-73
2022/08/11 16:28:06;;;;;;;5.30;2.50;;;;;;;;;;5071241;28;20548;-73
2022/08/11 16:30:34;;;;;;;3.90;3.00;;;;;;;;;;5069996;28;20438;-73
2022/08/11 16:33:03;;;;;;;2.80;2.43;;;;;;;;;;5071170;28;20941;-73
2022/08/11 16:38:37;;;;;;;2.80;2.60;;;;;;;;;;5071109;28;21000;-73
2022/08/11 16:41:05;;;;;;;3.83;2.20;;;;;;;;;;5073177;28;20460;-73
2022/08/11 16:49:23;;;;;;;2.57;2.37;;;;;;;;;;5090222;28;21051;-73
2022/08/11 16:51:50;;;;;;;2.80;2.57;;;;;;;;;;5110543;28;20433;-73
2022/08/11 16:54:17;;;;;;;3.30;2.80;;;;;;;;;;5091937;28;20431;-74
2022/08/11 16:56:46;;;;;;;3.30;3.00;;;;;;;;;;5104162;28;20448;-73
2022/08/11 16:59:22;;;;;;;3.10;2.73;;;;;;;;;;5070471;28;20910;-73
2022/08/11 17:01:52;;;;;;;8.20;4.00;;;;;;;;;;5075161;28;20475;-73
2022/08/11 17:13:28;;;;;;;2.70;2.50;;;;;;;;;;5065045;28;20455;-73
2022/08/11 17:16:05;;;;;;;3.63;2.67;;;;;;;;;;5061226;28;20487;-72
2022/08/11 17:18:41;;;;;;;4.70;2.80;;;;;;;;;;5079707;28;20551;-74
2022/08/11 17:21:14;;;;;;;4.03;2.23;;;;;;;;;;5070906;28;20436;-73
2022/08/11 17:23:51;;;;;;;4.50;2.33;;;;;;;;;;5088245;28;20485;-72
2022/08/11 17:26:21;;;;;;;4.20;2.87;;;;;;;;;;5076176;28;20815;-72
2022/08/11 17:28:50;;;;;;;4.13;2.93;;;;;;;;;;5070681;28;20855;-72
2022/08/11 17:36:53;;;;;;;3.17;2.97;;;;;;;;;;5090733;28;20439;-73
2022/08/11 17:39:23;;;;;;;3.80;2.80;;;;;;;;;;5056334;28;20936;-73
2022/08/11 17:50:08;;;;;;;3.83;2.87;;;;;;;;;;5094814;28;20476;-73
2022/08/11 18:01:04;;;;;;;2.63;2.43;;;;;;;;;;5073055;28;20432;-73
2022/08/11 18:03:38;;;;;;;2.83;2.63;;;;;;;;;;5089635;28;20567;-73
2022/08/11 18:06:07;;;;;;;4.00;2.70;;;;;;;;;;5065630;28;20437;-73
